sensor_id;sensor_type;location;lat;lon;timestamp;temperature;humidity
42227;DHT22;27892;52.378;13.122;2023-03-14T00:01:23;15.80;61.90
42227;DHT22;27892;52.378;13.122;2023-03-14T00:03:49;15.80;62.10
42227;DHT22;27892;52.378;13.122;2023-03-14T00:06:16;15.70;62.10
42227;DHT22;27892;52.378;13.122;2023-03-14T00:08:43;15.70;62.40
42227;DHT22;27892;52.378;13.122;2023-03-14T00:11:11;15.70;62.60
42227;DHT22;27892;52.378;13.122;2023-03-14T00:13:37;15.60;63.30
42227;DHT22;27892;52.378;13.122;2023-03-14T00:16:08;15.60;62.60
42227;DHT22;27892;52.378;13.122;2023-03-14T00:18:34;15.60;62.70
42227;DHT22;27892;52.378;13.122;2023-03-14T00:21:01;15.60;62.70
42227;DHT22;27892;52.378;13.122;2023-03-14T00:23:28;15.60;62.80
42227;DHT22;27892;52.378;13.122;2023-03-14T00:25:59;15.60;62.80
42227;DHT22;27892;52.378;13.122;2023-03-14T00:28:25;15.60;63.00
42227;DHT22;27892;52.378;13.122;2023-03-14T00:30:50;15.60;63.00
42227;DHT22;27892;52.378;13.122;2023-03-14T00:33:16;15.60;63.00
42227;DHT22;27892;52.378;13.122;2023-03-14T00:35:42;15.60;63.10
42227;DHT22;27892;52.378;13.122;2023-03-14T00:38:07;15.50;63.20
42227;DHT22;27892;52.378;13.122;2023-03-14T00:40:33;15.50;63.20
42227;DHT22;27892;52.378;13.122;2023-03-14T00:42:58;15.50;63.40
42227;DHT22;27892;52.378;13.122;2023-03-14T00:45:24;15.50;63.60
42227;DHT22;27892;52.378;13.122;2023-03-14T00:47:50;15.50;63.70
42227;DHT22;27892;52.378;13.122;2023-03-14T00:50:15;15.40;63.90
42227;DHT22;27892;52.378;13.122;2023-03-14T00:52:41;15.40;63.90
42227;DHT22;27892;52.378;13.122;2023-03-14T00:55:07;15.40;64.10
42227;DHT22;27892;52.378;13.122;2023-03-14T00:57:33;15.40;64.10
42227;DHT22;27892;52.378;13.122;2023-03-14T00:59:58;15.40;64.20
42227;DHT22;27892;52.378;13.122;2023-03-14T01:02:24;15.30;64.10
42227;DHT22;27892;52.378;13.122;2023-03-14T01:04:50;15.30;64.30
42227;DHT22;27892;52.378;13.122;2023-03-14T01:07:16;15.20;64.30
42227;DHT22;27892;52.378;13.122;2023-03-14T01:09:41;15.20;64.60
42227;DHT22;27892;52.378;13.122;2023-03-14T01:12:07;15.20;64.80
42227;DHT22;27892;52.378;13.122;2023-03-14T01:14:33;15.20;64.90
42227;DHT22;27892;52.378;13.122;2023-03-14T01:16:58;15.20;64.90
42227;DHT22;27892;52.378;13.122;2023-03-14T01:19:29;15.20;65.10
42227;DHT22;27892;52.378;13.122;2023-03-14T01:21:55;15.20;65.10
42227;DHT22;27892;52.378;13.122;2023-03-14T01:24:21;15.20;65.10
42227;DHT22;27892;52.378;13.122;2023-03-14T01:26:46;15.20;65.20
42227;DHT22;27892;52.378;13.122;2023-03-14T01:29:12;15.10;65.30
42227;DHT22;27892;52.378;13.122;2023-03-14T01:31:38;15.20;65.50
42227;DHT22;27892;52.378;13.122;2023-03-14T01:34:04;15.20;65.50
42227;DHT22;27892;52.378;13.122;2023-03-14T01:36:30;15.20;65.50
42227;DHT22;27892;52.378;13.122;2023-03-14T01:38:55;15.20;65.60
42227;DHT22;27892;52.378;13.122;2023-03-14T01:41:24;15.10;65.50
42227;DHT22;27892;52.378;13.122;2023-03-14T01:43:50;15.10;65.80
42227;DHT22;27892;52.378;13.122;2023-03-14T01:51:59;15.10;66.10
42227;DHT22;27892;52.378;13.122;2023-03-14T01:54:52;15.10;66.30
42227;DHT22;27892;52.378;13.122;2023-03-14T01:59:57;15.10;66.10
42227;DHT22;27892;52.378;13.122;2023-03-14T02:02:25;15.00;66.20
42227;DHT22;27892;52.378;13.122;2023-03-14T02:04:52;15.00;66.90
42227;DHT22;27892;52.378;13.122;2023-03-14T02:09:54;15.00;66.60
42227;DHT22;27892;52.378;13.122;2023-03-14T02:12:21;14.90;66.40
42227;DHT22;27892;52.378;13.122;2023-03-14T02:14:47;14.90;66.50
42227;DHT22;27892;52.378;13.122;2023-03-14T02:17:14;14.90;66.50
42227;DHT22;27892;52.378;13.122;2023-03-14T02:19:54;14.80;66.70
42227;DHT22;27892;52.378;13.122;2023-03-14T02:22:22;14.80;66.90
42227;DHT22;27892;52.378;13.122;2023-03-14T02:27:44;14.90;66.80
42227;DHT22;27892;52.378;13.122;2023-03-14T02:30:22;14.90;66.70
42227;DHT22;27892;52.378;13.122;2023-03-14T02:32:51;14.90;66.70
42227;DHT22;27892;52.378;13.122;2023-03-14T02:35:23;14.80;66.50
42227;DHT22;27892;52.378;13.122;2023-03-14T02:37:55;14.80;66.60
42227;DHT22;27892;52.378;13.122;2023-03-14T02:40:22;14.80;66.60
42227;DHT22;27892;52.378;13.122;2023-03-14T02:42:47;14.80;66.50
42227;DHT22;27892;52.378;13.122;2023-03-14T02:48:18;14.80;66.30
42227;DHT22;27892;52.378;13.122;2023-03-14T02:50:49;14.80;66.40
42227;DHT22;27892;52.378;13.122;2023-03-14T02:53:18;14.70;67.10
42227;DHT22;27892;52.378;13.122;2023-03-14T02:55:46;14.70;66.50
42227;DHT22;27892;52.378;13.122;2023-03-14T02:58:12;14.80;66.50
42227;DHT22;27892;52.378;13.122;2023-03-14T03:00:38;14.80;66.30
42227;DHT22;27892;52.378;13.122;2023-03-14T03:03:03;14.80;66.30
42227;DHT22;27892;52.378;13.122;2023-03-14T03:05:31;14.80;66.10
42227;DHT22;27892;52.378;13.122;2023-03-14T03:07:57;14.80;66.00
42227;DHT22;27892;52.378;13.122;2023-03-14T03:10:23;14.80;66.00
42227;DHT22;27892;52.378;13.122;2023-03-14T03:12:49;14.70;65.80
42227;DHT22;27892;52.378;13.122;2023-03-14T03:15:33;14.70;65.80
42227;DHT22;27892;52.378;13.122;2023-03-14T03:18:18;14.80;65.80
42227;DHT22;27892;52.378;13.122;2023-03-14T03:21:04;14.80;65.70
42227;DHT22;27892;52.378;13.122;2023-03-14T03:23:49;14.80;65.70
42227;DHT22;27892;52.378;13.122;2023-03-14T03:26:35;14.80;65.70
42227;DHT22;27892;52.378;13.122;2023-03-14T03:29:19;14.70;65.50
42227;DHT22;27892;52.378;13.122;2023-03-14T03:32:03;14.70;65.50
42227;DHT22;27892;52.378;13.122;2023-03-14T03:34:29;14.70;65.70
42227;DHT22;27892;52.378;13.122;2023-03-14T03:36:58;14.70;65.70
42227;DHT22;27892;52.378;13.122;2023-03-14T03:39:24;14.70;65.50
42227;DHT22;27892;52.378;13.122;2023-03-14T03:41:49;14.70;65.30
42227;DHT22;27892;52.378;13.122;2023-03-14T03:44:15;14.70;65.30
42227;DHT22;27892;52.378;13.122;2023-03-14T03:46:41;14.70;65.80
42227;DHT22;27892;52.378;13.122;2023-03-14T03:49:06;14.70;65.10
42227;DHT22;27892;52.378;13.122;2023-03-14T03:51:32;14.70;65.10
42227;DHT22;27892;52.378;13.122;2023-03-14T03:53:58;14.80;65.10
42227;DHT22;27892;52.378;13.122;2023-03-14T03:56:23;14.70;65.00
42227;DHT22;27892;52.378;13.122;2023-03-14T03:58:49;14.70;64.90
42227;DHT22;27892;52.378;13.122;2023-03-14T04:01:15;14.70;64.70
42227;DHT22;27892;52.378;13.122;2023-03-14T04:03:40;14.80;64.70
42227;DHT22;27892;52.378;13.122;2023-03-14T04:06:08;14.70;64.70
42227;DHT22;27892;52.378;13.122;2023-03-14T04:08:34;14.70;64.70
42227;DHT22;27892;52.378;13.122;2023-03-14T04:11:01;14.70;64.60
42227;DHT22;27892;52.378;13.122;2023-03-14T04:13:27;14.70;64.40
42227;DHT22;27892;52.378;13.122;2023-03-14T04:15:54;14.70;64.60
42227;DHT22;27892;52.378;13.122;2023-03-14T04:18:20;14.70;64.50
42227;DHT22;27892;52.378;13.122;2023-03-14T04:20:51;14.70;64.50
42227;DHT22;27892;52.378;13.122;2023-03-14T04:23:17;14.70;64.50
42227;DHT22;27892;52.378;13.122;2023-03-14T04:25:42;14.70;64.40
42227;DHT22;27892;52.378;13.122;2023-03-14T04:28:08;14.70;64.40
42227;DHT22;27892;52.378;13.122;2023-03-14T04:30:34;14.70;64.30
42227;DHT22;27892;52.378;13.122;2023-03-14T04:32:59;14.70;64.20
42227;DHT22;27892;52.378;13.122;2023-03-14T04:35:25;14.70;64.10
42227;DHT22;27892;52.378;13.122;2023-03-14T04:37:51;14.70;64.20
42227;DHT22;27892;52.378;13.122;2023-03-14T04:40:17;14.60;64.00
42227;DHT22;27892;52.378;13.122;2023-03-14T04:42:43;14.60;64.00
42227;DHT22;27892;52.378;13.122;2023-03-14T04:45:09;14.60;63.90
42227;DHT22;27892;52.378;13.122;2023-03-14T04:47:35;14.60;63.80
42227;DHT22;27892;52.378;13.122;2023-03-14T04:50:01;14.60;63.70
42227;DHT22;27892;52.378;13.122;2023-03-14T04:52:27;14.60;63.80
42227;DHT22;27892;52.378;13.122;2023-03-14T04:54:53;14.60;63.70
42227;DHT22;27892;52.378;13.122;2023-03-14T04:57:19;14.60;63.70
42227;DHT22;27892;52.378;13.122;2023-03-14T04:59:44;14.60;63.60
42227;DHT22;27892;52.378;13.122;2023-03-14T05:02:10;14.60;63.50
42227;DHT22;27892;52.378;13.122;2023-03-14T05:04:36;14.70;63.50
42227;DHT22;27892;52.378;13.122;2023-03-14T05:07:01;14.60;63.30
42227;DHT22;27892;52.378;13.122;2023-03-14T05:09:27;14.60;63.30
42227;DHT22;27892;52.378;13.122;2023-03-14T05:11:53;14.60;63.20
42227;DHT22;27892;52.378;13.122;2023-03-14T05:14:19;14.60;63.10
42227;DHT22;27892;52.378;13.122;2023-03-14T05:16:44;14.70;63.20
42227;DHT22;27892;52.378;13.122;2023-03-14T05:19:10;14.70;63.00
42227;DHT22;27892;52.378;13.122;2023-03-14T05:21:37;14.70;62.90
42227;DHT22;27892;52.378;13.122;2023-03-14T05:24:03;14.70;62.70
42227;DHT22;27892;52.378;13.122;2023-03-14T05:26:29;14.70;62.50
42227;DHT22;27892;52.378;13.122;2023-03-14T05:28:55;14.70;62.40
42227;DHT22;27892;52.378;13.122;2023-03-14T05:31:20;14.70;62.40
42227;DHT22;27892;52.378;13.122;2023-03-14T05:33:46;14.60;62.00
42227;DHT22;27892;52.378;13.122;2023-03-14T05:36:12;14.60;61.80
42227;DHT22;27892;52.378;13.122;2023-03-14T05:38:38;14.70;62.00
42227;DHT22;27892;52.378;13.122;2023-03-14T05:41:04;14.60;61.80
42227;DHT22;27892;52.378;13.122;2023-03-14T05:43:29;14.70;61.90
42227;DHT22;27892;52.378;13.122;2023-03-14T05:45:55;14.70;61.60
42227;DHT22;27892;52.378;13.122;2023-03-14T05:48:21;14.70;61.60
42227;DHT22;27892;52.378;13.122;2023-03-14T05:50:47;14.60;61.10
42227;DHT22;27892;52.378;13.122;2023-03-14T05:53:13;14.60;61.10
42227;DHT22;27892;52.378;13.122;2023-03-14T05:55:39;14.70;61.10
42227;DHT22;27892;52.378;13.122;2023-03-14T05:58:05;14.60;61.20
42227;DHT22;27892;52.378;13.122;2023-03-14T06:00:32;14.60;60.50
42227;DHT22;27892;52.378;13.122;2023-03-14T06:02:57;14.70;60.30
42227;DHT22;27892;52.378;13.122;2023-03-14T06:05:23;14.80;60.20
42227;DHT22;27892;52.378;13.122;2023-03-14T06:07:49;14.80;60.70
42227;DHT22;27892;52.378;13.122;2023-03-14T06:10:15;14.80;60.30
42227;DHT22;27892;52.378;13.122;2023-03-14T06:12:40;14.90;59.60
42227;DHT22;27892;52.378;13.122;2023-03-14T06:15:07;14.90;59.50
42227;DHT22;27892;52.378;13.122;2023-03-14T06:17:32;14.90;59.30
42227;DHT22;27892;52.378;13.122;2023-03-14T06:19:58;14.90;59.10
42227;DHT22;27892;52.378;13.122;2023-03-14T06:22:24;15.00;59.10
42227;DHT22;27892;52.378;13.122;2023-03-14T06:24:49;15.10;59.00
42227;DHT22;27892;52.378;13.122;2023-03-14T06:27:15;15.10;58.70
42227;DHT22;27892;52.378;13.122;2023-03-14T06:29:41;15.10;58.50
42227;DHT22;27892;52.378;13.122;2023-03-14T06:32:06;15.20;58.40
42227;DHT22;27892;52.378;13.122;2023-03-14T06:34:32;15.30;58.30
42227;DHT22;27892;52.378;13.122;2023-03-14T06:36:58;15.40;58.10
42227;DHT22;27892;52.378;13.122;2023-03-14T06:39:24;15.50;57.90
42227;DHT22;27892;52.378;13.122;2023-03-14T06:41:49;15.60;57.50
42227;DHT22;27892;52.378;13.122;2023-03-14T06:44:15;15.70;57.50
42227;DHT22;27892;52.378;13.122;2023-03-14T06:46:41;15.70;57.20
42227;DHT22;27892;52.378;13.122;2023-03-14T06:49:06;15.70;56.90
42227;DHT22;27892;52.378;13.122;2023-03-14T06:51:32;15.90;57.00
42227;DHT22;27892;52.378;13.122;2023-03-14T06:53:58;16.30;57.20
42227;DHT22;27892;52.378;13.122;2023-03-14T06:56:23;16.80;56.20
42227;DHT22;27892;52.378;13.122;2023-03-14T06:58:49;17.10;54.40
42227;DHT22;27892;52.378;13.122;2023-03-14T07:01:23;17.40;54.70
42227;DHT22;27892;52.378;13.122;2023-03-14T07:03:49;17.90;53.50
42227;DHT22;27892;52.378;13.122;2023-03-14T07:06:15;17.90;52.30
42227;DHT22;27892;52.378;13.122;2023-03-14T07:08:41;17.50;52.30
42227;DHT22;27892;52.378;13.122;2023-03-14T07:11:08;17.20;53.20
42227;DHT22;27892;52.378;13.122;2023-03-14T07:13:35;17.00;53.50
42227;DHT22;27892;52.378;13.122;2023-03-14T07:16:01;16.80;53.70
42227;DHT22;27892;52.378;13.122;2023-03-14T07:18:26;16.80;54.30
42227;DHT22;27892;52.378;13.122;2023-03-14T07:20:52;17.00;54.40
42227;DHT22;27892;52.378;13.122;2023-03-14T07:23:18;17.20;53.20
42227;DHT22;27892;52.378;13.122;2023-03-14T07:25:43;18.10;54.70
42227;DHT22;27892;52.378;13.122;2023-03-14T07:28:09;19.30;52.10
42227;DHT22;27892;52.378;13.122;2023-03-14T07:30:35;20.10;50.10
42227;DHT22;27892;52.378;13.122;2023-03-14T07:33:00;20.20;48.40
42227;DHT22;27892;52.378;13.122;2023-03-14T07:35:26;19.90;47.90
42227;DHT22;27892;52.378;13.122;2023-03-14T07:37:51;19.70;47.90
42227;DHT22;27892;52.378;13.122;2023-03-14T07:40:17;19.50;48.40
42227;DHT22;27892;52.378;13.122;2023-03-14T07:42:43;19.40;48.80
42227;DHT22;27892;52.378;13.122;2023-03-14T07:45:09;19.00;48.60
42227;DHT22;27892;52.378;13.122;2023-03-14T07:47:35;18.60;49.10
42227;DHT22;27892;52.378;13.122;2023-03-14T07:50:02;18.30;50.00
42227;DHT22;27892;52.378;13.122;2023-03-14T07:52:28;18.10;50.50
42227;DHT22;27892;52.378;13.122;2023-03-14T07:54:53;18.00;50.90
42227;DHT22;27892;52.378;13.122;2023-03-14T07:57:19;17.90;51.20
42227;DHT22;27892;52.378;13.122;2023-03-14T07:59:45;17.80;51.30
42227;DHT22;27892;52.378;13.122;2023-03-14T08:02:11;18.20;51.70
42227;DHT22;27892;52.378;13.122;2023-03-14T08:04:38;18.40;50.40
42227;DHT22;27892;52.378;13.122;2023-03-14T08:07:04;18.40;50.30
42227;DHT22;27892;52.378;13.122;2023-03-14T08:09:29;18.50;50.80
42227;DHT22;27892;52.378;13.122;2023-03-14T08:11:55;18.50;50.40
42227;DHT22;27892;52.378;13.122;2023-03-14T08:14:21;18.40;50.20
42227;DHT22;27892;52.378;13.122;2023-03-14T08:16:49;18.30;50.50
42227;DHT22;27892;52.378;13.122;2023-03-14T08:19:15;18.10;50.80
42227;DHT22;27892;52.378;13.122;2023-03-14T08:21:41;17.90;51.00
42227;DHT22;27892;52.378;13.122;2023-03-14T08:24:07;17.80;51.00
42227;DHT22;27892;52.378;13.122;2023-03-14T08:26:33;17.70;50.80
42227;DHT22;27892;52.378;13.122;2023-03-14T08:28:58;17.70;51.30
42227;DHT22;27892;52.378;13.122;2023-03-14T08:31:24;17.70;51.00
42227;DHT22;27892;52.378;13.122;2023-03-14T08:33:50;17.70;51.20
42227;DHT22;27892;52.378;13.122;2023-03-14T08:36:18;17.60;51.20
42227;DHT22;27892;52.378;13.122;2023-03-14T08:38:44;17.60;51.60
42227;DHT22;27892;52.378;13.122;2023-03-14T08:41:09;17.40;50.70
42227;DHT22;27892;52.378;13.122;2023-03-14T08:43:35;17.30;51.20
42227;DHT22;27892;52.378;13.122;2023-03-14T08:46:02;17.10;51.20
42227;DHT22;27892;52.378;13.122;2023-03-14T08:48:29;17.20;51.80
42227;DHT22;27892;52.378;13.122;2023-03-14T08:50:56;17.10;51.60
42227;DHT22;27892;52.378;13.122;2023-03-14T08:53:22;17.10;51.60
42227;DHT22;27892;52.378;13.122;2023-03-14T08:55:53;17.30;52.00
42227;DHT22;27892;52.378;13.122;2023-03-14T08:58:19;17.50;51.90
42227;DHT22;27892;52.378;13.122;2023-03-14T09:00:45;17.70;51.30
42227;DHT22;27892;52.378;13.122;2023-03-14T09:03:10;18.30;52.70
42227;DHT22;27892;52.378;13.122;2023-03-14T09:05:36;20.60;50.40
42227;DHT22;27892;52.378;13.122;2023-03-14T09:08:02;23.00;44.60
42227;DHT22;27892;52.378;13.122;2023-03-14T09:10:27;25.20;42.20
42227;DHT22;27892;52.378;13.122;2023-03-14T09:12:53;26.00;36.80
42227;DHT22;27892;52.378;13.122;2023-03-14T09:15:19;25.90;38.80
42227;DHT22;27892;52.378;13.122;2023-03-14T09:17:44;25.70;38.50
42227;DHT22;27892;52.378;13.122;2023-03-14T09:20:11;25.70;38.30
42227;DHT22;27892;52.378;13.122;2023-03-14T09:22:36;25.60;38.10
42227;DHT22;27892;52.378;13.122;2023-03-14T09:25:03;25.20;38.60
42227;DHT22;27892;52.378;13.122;2023-03-14T09:27:29;25.00;37.20
42227;DHT22;27892;52.378;13.122;2023-03-14T09:29:54;24.30;38.10
42227;DHT22;27892;52.378;13.122;2023-03-14T09:32:20;23.40;38.70
42227;DHT22;27892;52.378;13.122;2023-03-14T09:34:46;22.60;40.10
42227;DHT22;27892;52.378;13.122;2023-03-14T09:37:11;21.80;40.70
42227;DHT22;27892;52.378;13.122;2023-03-14T09:39:37;21.10;41.90
42227;DHT22;27892;52.378;13.122;2023-03-14T09:42:06;20.60;42.50
42227;DHT22;27892;52.378;13.122;2023-03-14T09:44:37;20.10;42.70
42227;DHT22;27892;52.378;13.122;2023-03-14T09:47:06;19.80;43.50
42227;DHT22;27892;52.378;13.122;2023-03-14T09:49:39;19.60;44.30
42227;DHT22;27892;52.378;13.122;2023-03-14T09:52:12;19.40;44.90
42227;DHT22;27892;52.378;13.122;2023-03-14T09:54:49;19.30;45.00
42227;DHT22;27892;52.378;13.122;2023-03-14T09:57:18;19.30;45.20
42227;DHT22;27892;52.378;13.122;2023-03-14T09:59:45;19.10;44.70
42227;DHT22;27892;52.378;13.122;2023-03-14T10:02:19;18.90;45.70
42227;DHT22;27892;52.378;13.122;2023-03-14T10:04:47;18.80;45.20
42227;DHT22;27892;52.378;13.122;2023-03-14T10:07:15;18.70;45.40
42227;DHT22;27892;52.378;13.122;2023-03-14T10:09:43;18.50;45.40
42227;DHT22;27892;52.378;13.122;2023-03-14T10:12:10;18.50;45.00
42227;DHT22;27892;52.378;13.122;2023-03-14T10:14:37;18.30;45.80
42227;DHT22;27892;52.378;13.122;2023-03-14T10:17:21;18.40;45.60
42227;DHT22;27892;52.378;13.122;2023-03-14T10:19:58;18.30;45.90
42227;DHT22;27892;52.378;13.122;2023-03-14T10:22:27;18.20;46.10
42227;DHT22;27892;52.378;13.122;2023-03-14T10:24:57;18.10;46.20
42227;DHT22;27892;52.378;13.122;2023-03-14T10:27:33;18.10;46.70
42227;DHT22;27892;52.378;13.122;2023-03-14T10:30:01;18.10;46.60
42227;DHT22;27892;52.378;13.122;2023-03-14T10:32:38;18.00;46.70
42227;DHT22;27892;52.378;13.122;2023-03-14T10:37:57;17.90;46.80
42227;DHT22;27892;52.378;13.122;2023-03-14T10:40:39;18.00;46.90
42227;DHT22;27892;52.378;13.122;2023-03-14T10:44:56;18.00;45.90
42227;DHT22;27892;52.378;13.122;2023-03-14T10:47:24;18.10;46.60
42227;DHT22;27892;52.378;13.122;2023-03-14T10:49:51;18.20;47.40
42227;DHT22;27892;52.378;13.122;2023-03-14T10:52:25;18.30;47.10
42227;DHT22;27892;52.378;13.122;2023-03-14T10:55:09;18.50;46.60
42227;DHT22;27892;52.378;13.122;2023-03-14T10:57:39;18.60;46.30
42227;DHT22;27892;52.378;13.122;2023-03-14T11:00:09;18.60;46.50
42227;DHT22;27892;52.378;13.122;2023-03-14T11:05:14;18.50;46.60
42227;DHT22;27892;52.378;13.122;2023-03-14T11:07:42;18.50;46.60
42227;DHT22;27892;52.378;13.122;2023-03-14T11:10:36;18.40;46.60
42227;DHT22;27892;52.378;13.122;2023-03-14T11:16:31;18.40;47.00
42227;DHT22;27892;52.378;13.122;2023-03-14T11:21:45;18.10;47.70
42227;DHT22;27892;52.378;13.122;2023-03-14T11:27:17;18.00;48.10
42227;DHT22;27892;52.378;13.122;2023-03-14T11:35:24;18.00;48.80
42227;DHT22;27892;52.378;13.122;2023-03-14T11:38:00;18.00;48.30
42227;DHT22;27892;52.378;13.122;2023-03-14T11:40:28;18.00;48.70
42227;DHT22;27892;52.378;13.122;2023-03-14T11:43:00;18.10;48.90
42227;DHT22;27892;52.378;13.122;2023-03-14T11:45:38;18.00;48.90
42227;DHT22;27892;52.378;13.122;2023-03-14T11:48:28;18.00;49.40
42227;DHT22;27892;52.378;13.122;2023-03-14T11:51:02;18.10;49.50
42227;DHT22;27892;52.378;13.122;2023-03-14T11:53:48;18.10;49.60
42227;DHT22;27892;52.378;13.122;2023-03-14T11:56:33;18.30;49.50
42227;DHT22;27892;52.378;13.122;2023-03-14T11:59:09;18.50;49.00
42227;DHT22;27892;52.378;13.122;2023-03-14T12:13:16;18.70;47.70
42227;DHT22;27892;52.378;13.122;2023-03-14T12:19:27;18.60;47.40
42227;DHT22;27892;52.378;13.122;2023-03-14T12:24:30;18.50;48.00
42227;DHT22;27892;52.378;13.122;2023-03-14T12:27:02;18.60;48.20
42227;DHT22;27892;52.378;13.122;2023-03-14T12:29:28;18.60;47.20
42227;DHT22;27892;52.378;13.122;2023-03-14T12:34:30;18.80;48.10
42227;DHT22;27892;52.378;13.122;2023-03-14T12:44:51;18.50;48.50
42227;DHT22;27892;52.378;13.122;2023-03-14T12:47:40;18.40;49.70
42227;DHT22;27892;52.378;13.122;2023-03-14T12:50:20;18.40;51.00
42227;DHT22;27892;52.378;13.122;2023-03-14T12:53:18;18.30;50.50
42227;DHT22;27892;52.378;13.122;2023-03-14T12:56:00;18.30;50.40
42227;DHT22;27892;52.378;13.122;2023-03-14T13:01:19;18.10;49.20
42227;DHT22;27892;52.378;13.122;2023-03-14T13:03:52;18.00;49.30
42227;DHT22;27892;52.378;13.122;2023-03-14T13:06:50;18.10;51.10
42227;DHT22;27892;52.378;13.122;2023-03-14T13:12:10;18.50;50.50
42227;DHT22;27892;52.378;13.122;2023-03-14T13:14:41;18.80;49.60
42227;DHT22;27892;52.378;13.122;2023-03-14T13:17:13;19.10;49.70
42227;DHT22;27892;52.378;13.122;2023-03-14T13:19:39;19.30;47.20
42227;DHT22;27892;52.378;13.122;2023-03-14T13:22:21;19.30;46.80
42227;DHT22;27892;52.378;13.122;2023-03-14T13:24:47;19.40;46.60
42227;DHT22;27892;52.378;13.122;2023-03-14T13:27:20;19.40;46.90
42227;DHT22;27892;52.378;13.122;2023-03-14T13:29:49;20.20;47.60
42227;DHT22;27892;52.378;13.122;2023-03-14T13:32:26;20.20;44.60
42227;DHT22;27892;52.378;13.122;2023-03-14T13:34:56;20.20;45.80
42227;DHT22;27892;52.378;13.122;2023-03-14T13:37:24;20.60;45.60
42227;DHT22;27892;52.378;13.122;2023-03-14T13:39:51;21.00;45.70
42227;DHT22;27892;52.378;13.122;2023-03-14T13:42:18;21.90;45.30
42227;DHT22;27892;52.378;13.122;2023-03-14T13:44:44;23.50;46.30
42227;DHT22;27892;52.378;13.122;2023-03-14T13:47:19;25.20;44.10
42227;DHT22;27892;52.378;13.122;2023-03-14T13:49:46;26.20;38.80
42227;DHT22;27892;52.378;13.122;2023-03-14T13:52:29;26.80;37.90
42227;DHT22;27892;52.378;13.122;2023-03-14T13:54:56;27.20;35.80
42227;DHT22;27892;52.378;13.122;2023-03-14T13:57:22;26.60;35.90
42227;DHT22;27892;52.378;13.122;2023-03-14T14:00:00;26.00;36.20
42227;DHT22;27892;52.378;13.122;2023-03-14T14:02:27;25.20;36.60
42227;DHT22;27892;52.378;13.122;2023-03-14T14:04:53;24.50;36.80
42227;DHT22;27892;52.378;13.122;2023-03-14T14:07:19;23.70;38.30
42227;DHT22;27892;52.378;13.122;2023-03-14T14:09:50;23.10;39.90
42227;DHT22;27892;52.378;13.122;2023-03-14T14:12:30;23.00;40.70
42227;DHT22;27892;52.378;13.122;2023-03-14T14:15:14;23.00;39.60
42227;DHT22;27892;52.378;13.122;2023-03-14T14:17:48;22.50;40.20
42227;DHT22;27892;52.378;13.122;2023-03-14T14:22:52;21.20;42.30
42227;DHT22;27892;52.378;13.122;2023-03-14T14:25:18;20.70;42.90
42227;DHT22;27892;52.378;13.122;2023-03-14T14:27:49;20.40;43.70
42227;DHT22;27892;52.378;13.122;2023-03-14T14:32:46;19.80;45.30
42227;DHT22;27892;52.378;13.122;2023-03-14T14:35:32;19.60;45.70
42227;DHT22;27892;52.378;13.122;2023-03-14T14:37:59;19.30;47.30
42227;DHT22;27892;52.378;13.122;2023-03-14T14:40:30;19.30;46.70
42227;DHT22;27892;52.378;13.122;2023-03-14T14:43:04;19.30;46.90
42227;DHT22;27892;52.378;13.122;2023-03-14T14:45:34;19.20;47.10
42227;DHT22;27892;52.378;13.122;2023-03-14T14:48:05;19.20;47.30
42227;DHT22;27892;52.378;13.122;2023-03-14T14:50:33;19.10;47.60
42227;DHT22;27892;52.378;13.122;2023-03-14T14:53:02;18.90;48.10
42227;DHT22;27892;52.378;13.122;2023-03-14T14:55:33;18.80;48.10
42227;DHT22;27892;52.378;13.122;2023-03-14T14:58:16;18.70;48.40
42227;DHT22;27892;52.378;13.122;2023-03-14T15:00:51;18.30;49.90
42227;DHT22;27892;52.378;13.122;2023-03-14T15:03:18;17.90;52.10
42227;DHT22;27892;52.378;13.122;2023-03-14T15:05:43;17.70;52.50
42227;DHT22;27892;52.378;13.122;2023-03-14T15:08:10;17.50;53.70
42227;DHT22;27892;52.378;13.122;2023-03-14T15:10:36;16.20;51.00
42227;DHT22;27892;52.378;13.122;2023-03-14T15:13:01;15.10;53.00
42227;DHT22;27892;52.378;13.122;2023-03-14T15:15:27;14.20;55.00
42227;DHT22;27892;52.378;13.122;2023-03-14T15:17:53;13.20;56.00
42227;DHT22;27892;52.378;13.122;2023-03-14T15:20:18;12.40;57.10
42227;DHT22;27892;52.378;13.122;2023-03-14T15:22:45;11.40;59.30
42227;DHT22;27892;52.378;13.122;2023-03-14T15:25:11;10.90;60.30
42227;DHT22;27892;52.378;13.122;2023-03-14T15:27:38;10.40;62.10
42227;DHT22;27892;52.378;13.122;2023-03-14T15:30:15;10.00;62.70
42227;DHT22;27892;52.378;13.122;2023-03-14T15:32:41;9.70;64.60
42227;DHT22;27892;52.378;13.122;2023-03-14T15:35:07;9.50;65.00
42227;DHT22;27892;52.378;13.122;2023-03-14T15:37:34;9.30;65.30
42227;DHT22;27892;52.378;13.122;2023-03-14T15:40:00;9.20;66.20
42227;DHT22;27892;52.378;13.122;2023-03-14T15:42:28;8.90;66.00
42227;DHT22;27892;52.378;13.122;2023-03-14T15:44:54;8.80;67.20
42227;DHT22;27892;52.378;13.122;2023-03-14T15:47:19;8.60;67.10
42227;DHT22;27892;52.378;13.122;2023-03-14T15:49:45;8.30;68.00
42227;DHT22;27892;52.378;13.122;2023-03-14T15:52:11;8.20;68.50
42227;DHT22;27892;52.378;13.122;2023-03-14T15:54:36;8.00;68.20
42227;DHT22;27892;52.378;13.122;2023-03-14T15:57:02;7.90;67.50
42227;DHT22;27892;52.378;13.122;2023-03-14T15:59:28;7.60;67.70
42227;DHT22;27892;52.378;13.122;2023-03-14T16:01:53;7.50;68.80
42227;DHT22;27892;52.378;13.122;2023-03-14T16:04:20;7.20;68.20
42227;DHT22;27892;52.378;13.122;2023-03-14T16:06:46;7.00;67.80
42227;DHT22;27892;52.378;13.122;2023-03-14T16:09:12;6.60;68.50
42227;DHT22;27892;52.378;13.122;2023-03-14T16:11:38;6.50;68.10
42227;DHT22;27892;52.378;13.122;2023-03-14T16:14:05;6.30;68.60
42227;DHT22;27892;52.378;13.122;2023-03-14T16:16:31;6.10;69.10
42227;DHT22;27892;52.378;13.122;2023-03-14T16:18:56;6.00;69.40
42227;DHT22;27892;52.378;13.122;2023-03-14T16:21:22;5.90;70.50
42227;DHT22;27892;52.378;13.122;2023-03-14T16:23:48;5.90;70.60
42227;DHT22;27892;52.378;13.122;2023-03-14T16:26:19;5.80;71.50
42227;DHT22;27892;52.378;13.122;2023-03-14T16:28:46;5.90;71.90
42227;DHT22;27892;52.378;13.122;2023-03-14T16:31:18;5.90;72.30
42227;DHT22;27892;52.378;13.122;2023-03-14T16:33:45;6.00;72.50
42227;DHT22;27892;52.378;13.122;2023-03-14T16:36:12;6.00;72.70
42227;DHT22;27892;52.378;13.122;2023-03-14T16:38:40;6.10;72.80
42227;DHT22;27892;52.378;13.122;2023-03-14T16:43:39;6.20;72.70
42227;DHT22;27892;52.378;13.122;2023-03-14T16:46:09;6.20;73.00